MMTO/TLC METAR and TAF weather

Enter ICAO airport designator
Station Type Date Time Source
MMTO METAR 2022/12/08 12:47 UTC NOAA

MMTO 081247Z 00000KT 5SM SKC 00/M03 A3047 RMK HZY


Station Type Date Time Source
MMTO Decoded METAR 2022/12/08 12:47 UTC NOAA

Toluca / Jose Maria , Mexico (MMTO) 19-21N 099-34W
Dec 08, 2022 - 07:47 AM EST / 2022.12.08 1247 UTC
Wind: Calm:0
Visibility: 5 mile(s):0
Sky conditions: clear
Temperature: 32 F (0 C)
Dew Point: 26 F (-3 C)
Relative Humidity: 80%
Pressure (altimeter): 30.47 in. Hg (1031 hPa)
ob: MMTO 081247Z 00000KT 5SM SKC 00/M03 A3047 RMK HZY
cycle: 13

Station Type Date Time Source
MMTO TAF 2022/12/08 12:42 UTC NOAA

TAF MMTO 081135Z 0812/0918 31008KT 5SM HZ SKC TX21/0820Z TN00/0812Z
TEMPO 0812/0816 4SM HZ
FM081800 03010KT P6SM SCT250
FM090600 02005KT P6SM SKC
TEMPO 0912/0916 4SM HZ
FM091700 03010KT P6SM SCT020 SCT250

Example: see airport list